Main page
METAR-TAF:

METAR-TAF

Airports :

Wick, Scotland

Wick Airport

latitude: 58-27N, longitude: 003-05W, elevation: 39 m

Current weather observation

The report was made 37 minutes ago, at 13:20 UTC
Wind 24 kt from the West/Southwest
Temperature 15°C
Humidity 51%
Pressure 998 hPa
Visibility 10 km or more

METAR: EGPC 241320Z AUTO 25024KT 9999 SCT040/// 15/05 Q0998

Time: 14:57 (13:57 UTC)

Forecast

The report was made 2 hours and 55 minutes ago, at 11:02 UTC
Forecast valid from 24 at 12 UTC to 24 at 21 UTC
Wind 15 kt from the West/Southwest
Visibility 10 km or more
Scattered clouds at a height of 3500 ft
Probability 40% :
Temporary
from 24 at 12 UTC to 24 at 21 UTC
Wind 20 kt from the West/Southwest with gusts up to 30 kt
Visibility: 7000 m
rain showers

TAF: EGPC 241102Z 2412/2421 24015KT 9999 SCT035 PROB40 TEMPO 2412/2421 25020G30KT 7000 SHRA

Weather observations and forecasts of more than 4000 airports (METAR and TAF reports).

The available stations are represented by yellow and red dots on the map.

Hover mouse over dot to see the name of the station.

Then click to see weather observations and forecasts.

To change the map : click on the green buttons with a black cross to zoom in, on the green button with a dash to zoom out, or on the green arrows for adjacent maps.


METAR-TAF: